Airfield :
LOGIN :

Register | Disclaimer

   EN    FR    IT 

 










Legend :    VFR   Marginal VFR   IFR   Intensive IFR   Very Intensive IFR
Visi :
Ceiling :
>= 8 km
>= 3000ft
5 to 8 km
1000 to 3000 ft
1500m to 5 km
500 to 1000 ft
800 to 1500m
200 to 500 ft
< 800m
< 200 ft
Symbols :   Thunderstorms  Fog  Heavy snow  Heavy precipitations  Wind > 20 kt
SIGMETs :     Misc.  Thunderstorms  Icing  Turbulence  Mountain Waves  Volcanic Ashes







- Airport Elevation : 39 ft
- IATA code : ANR


EBAW - Anvers / Antwerpen Deurne

CURRENT METAR :
  • 160850Z 26007KT 9999 SCT023 BKN035 04/02 Q1012 TEMPO 3500 SHRAGS BKN010

EXPIRED METARs :
  • 160820Z 29005KT 9999 SCT021 SCT032 04/01 Q1011 TEMPO 3500 SHRAGS BKN007 SCT015CB
  • 160750Z 27007KT 9999 SCT022 BKN034 03/01 Q1011 TEMPO 3500 SHRAGS BKN007 SCT015CB
  • 160720Z 26006KT 9999 FEW027 SCT038 03/01 Q1010 TEMPO 3500 SHRAGS BKN007 SCT015CB
  • 160650Z 30006KT 260V330 9999 FEW027 SCT035 04/01 Q1010 TEMPO 3500 SHRAGS BKN007 SCT015CB
  • 160620Z 28005KT 9999 FEW028 SCT035 03/01 Q1009 TEMPO 3500 SHRAGS BKN007 SCT015CB
  • 160550Z 30004KT 270V350 CAVOK 03/01 Q1009 TEMPO 3500 SHRAGS BKN007 SCT015CB

TAF TAF EBAW
Valid from the 16 at 09:00 until the 16 at 18:00 UTC


160811Z 1609/1618 25005KT 9999 FEW015CB SCT030
TEMPO 1609/1618 3500 SHRAGS BKN010
No reported NOTAMs for that airfield.



MET'MAP, your aeronautical weather chart ! - Copyright ORBIFLY December 2007 - Disclaimer

ORBIFLY MET'MAP TEAM :

Programming & Development : Alexandra Zaïnal
Concept & Development : Baudouin d'Aumeries
Co-Development & Prog : Marc-Olivier Méhu
Technical & hardware support : Manuel Goepfert

Contact : metmap@orbifly.com




SOURCES & CREDITS :

   NOAA